Latest Weather Observations for Broken Hill Airport

IDN60801

Issued at 4:05 pm EDT Monday 24 November 2014 (issued every 30 minutes, with the page automatically refreshed every 10 minutes)

About weather observations | Map of weather stations | Latest weather observations for NSW | Other Formats
Station Details ID: 047048 Name: BROKEN HILL AIRPORT AWS Lat: -32.00 Lon: 141.47 Height: 281.3 m
Data from the previous 72 hours. | See also: Recent months for locations in New South Wales
Date/Time
EDT
Temp
°C
App
Temp
°C
Dew
Point
Rel
Hum
%
Delta-T
°C
Wind Press
QNH
hPa
Press
MSL
hPa
Rain
since 9 am
mm
Dir
 
Spd
km/h
Gust
km/h
Spd
kts
Gust
kts
24/04:00pm 29.0 23.8 17.5 49 7.4 W 41 56 22 30 1008.8 1007.6 0.0
24/03:41pm 33.6 29.0 14.6 31 11.9 WNW 32 50 17 27 1008.6 1007.4 0.0
24/03:30pm 33.7 28.9 14.7 32 11.9 WNW 33 48 18 26 1008.9 1007.7 0.0
24/03:00pm 33.1 28.0 14.7 33 11.5 NW 35 56 19 30 1009.1 1007.9 0.0
24/02:30pm 32.8 28.3 14.9 34 11.2 NW 32 50 17 27 1009.5 1008.4 0.0
24/02:25pm 33.0 28.9 15.0 33 11.3 NW 30 50 16 27 1009.5 1008.4 0.0
24/02:00pm 32.1 28.4 15.1 35 10.6 NNW 28 43 15 23 1010.1 1009.0 0.0
24/01:30pm 30.8 26.7 16.0 40 9.3 N 32 46 17 25 1010.3 1009.2 0.0
24/01:00pm 30.4 26.3 16.0 41 9.1 N 32 46 17 25 1010.5 1009.4 0.0
24/12:36pm 29.5 25.9 16.3 45 8.3 N 30 48 16 26 1010.7 1009.6 0.0
24/12:30pm 29.5 25.9 16.3 45 8.3 N 30 41 16 22 1010.7 1009.6 0.0
24/12:06pm 28.8 25.6 16.4 47 7.8 N 28 46 15 25 1010.7 1009.6 0.0
24/12:00pm 29.2 27.5 18.0 51 7.2 N 24 35 13 19 1010.8 1009.7 0.0
24/11:30am 25.7 23.7 17.4 60 5.2 N 24 35 13 19 1010.8 1009.7 0.0
24/11:00am 24.5 22.2 17.5 65 4.4 NNE 26 35 14 19 1011.2 1010.1 0.0
24/10:30am 24.1 21.2 17.1 65 4.4 NE 28 35 15 19 1011.2 1010.1 0.0
24/10:00am 23.7 21.1 17.7 69 3.8 NE 28 35 15 19 1011.2 1010.1 0.0
24/09:30am 22.2 19.6 16.9 72 3.3 NE 26 33 14 18 1011.6 1010.5 3.4
24/09:00am 21.6 18.4 17.2 76 2.7 NE 30 41 16 22 1011.3 1010.2 3.4
24/08:30am 20.9 16.8 17.3 80 2.2 ENE 35 43 19 23 1011.1 1010.0 3.4
24/08:00am 20.7 17.9 18.1 85 1.6 E 30 37 16 20 1011.3 1010.2 3.4
24/07:30am 21.1 20.2 18.3 84 1.8 E 20 24 11 13 1012.3 1011.2 3.4
24/07:00am 21.0 20.4 18.4 85 1.6 SE 19 20 10 11 1013.0 1011.9 3.4
24/06:38am 21.0 22.5 18.9 88 1.3 S 9 11 5 6 1013.8 1012.7 3.4
24/06:30am 21.1 23.0 18.9 87 1.4 SSW 7 11 4 6 1013.8 1012.7 3.0
24/06:19am 21.3 23.2 18.9 86 1.5 W 7 9 4 5 1013.9 1012.8 2.8
24/06:00am 21.8 23.8 18.8 83 1.9 E 6 9 3 5 1012.9 1011.8 1.8
24/05:30am 22.1 24.0 18.5 80 2.3 ESE 6 11 3 6 1012.7 1011.6 1.4
24/05:00am 21.6 22.9 18.4 82 2.0 SSE 9 11 5 6 1012.3 1011.2 1.4
24/04:30am 22.0 24.9 18.2 79 2.4 CALM 0 0 0 0 1013.2 1012.1 1.2
24/04:29am 22.0 24.8 18.0 78 2.5 CALM 0 0 0 0 1013.2 1012.1 1.2
24/04:18am 22.0 24.0 16.9 73 3.2 N 2 7 1 4 1013.6 1012.5 1.2
24/04:00am 23.0 25.0 17.0 69 3.7 WNW 2 9 1 5 1013.6 1012.5 0.6
24/03:30am 24.4 24.5 14.5 54 5.9 SSW 7 9 4 5 1012.6 1011.5 0.0
24/03:00am 24.8 22.8 14.0 51 6.4 S 17 19 9 10 1012.1 1010.9 0.0
24/02:30am 26.8 22.0 11.7 39 8.8 SW 28 33 15 18 1012.5 1011.4 0.0
24/02:00am 27.1 22.0 12.0 39 8.8 NE 30 39 16 21 1010.7 1009.6 0.0
24/01:30am 26.8 22.0 11.7 39 8.8 ENE 28 37 15 20 1010.5 1009.4 0.0
24/01:00am 26.2 21.6 12.3 42 8.1 ENE 28 33 15 18 1011.1 1010.0 0.0
24/12:30am 26.2 22.5 12.6 43 8.0 ENE 24 33 13 18 1012.3 1011.2 0.0
24/12:00am 26.8 22.9 10.9 37 9.1 ENE 22 28 12 15 1012.7 1011.6 0.0
 
Date/Time
EDT
Temp
°C
App
Temp
°C
Dew
Point
Rel
Hum
%
Delta-T
°C
Wind Press
QNH
hPa
Press
MSL
hPa
Rain
since 9 am
mm
Dir
 
Spd
km/h
Gust
km/h
Spd
kts
Gust
kts
23/11:30pm 27.2 24.6 10.8 36 9.4 ENE 15 24 8 13 1013.4 1012.3 0.0
23/11:00pm 26.8 24.1 10.5 36 9.3 E 15 19 8 10 1012.7 1011.6 0.0
23/10:30pm 27.4 23.6 9.7 33 10.0 E 20 28 11 15 1012.6 1011.5 0.0
23/10:00pm 27.6 23.9 9.4 32 10.2 E 19 26 10 14 1012.3 1011.2 0.0
23/09:30pm 28.1 24.1 8.9 30 10.7 ESE 20 32 11 17 1012.1 1010.9 0.0
23/09:00pm 28.3 24.2 8.6 29 10.9 SSE 20 28 11 15 1012.1 1010.9 0.0
23/08:30pm 28.7 23.9 8.9 29 11.1 S 24 32 13 17 1012.1 1010.9 0.0
23/08:00pm 29.0 23.0 8.7 28 11.3 S 30 39 16 21 1011.6 1010.5 0.0
23/07:30pm 29.5 23.2 9.1 28 11.5 S 32 39 17 21 1011.8 1010.6 0.0
23/07:00pm 30.3 24.8 9.2 27 11.9 S 28 35 15 19 1011.9 1010.7 0.0
23/06:30pm 30.4 26.1 9.3 27 12.0 S 22 28 12 15 1012.1 1010.9 0.0
23/06:00pm 30.5 25.1 9.4 27 12.0 S 28 33 15 18 1011.3 1010.2 0.0
23/05:30pm 30.4 25.1 9.8 28 11.8 S 28 33 15 18 1011.1 1010.0 0.0
23/05:00pm 30.4 25.2 10.4 29 11.6 S 28 39 15 21 1010.6 1009.5 0.0
23/04:30pm 30.7 26.4 10.6 29 11.6 SSE 24 30 13 16 1011.0 1009.9 0.0
23/04:00pm 31.1 26.5 11.0 29 11.8 SSE 26 33 14 18 1011.2 1010.1 0.0
23/03:30pm 31.1 29.6 10.4 28 12.0 ENE 9 17 5 9 1013.3 1012.2 0.0
23/03:00pm 31.3 29.7 10.1 27 12.2 SSE 9 15 5 8 1012.7 1011.6 0.0
23/02:30pm 30.7 27.7 10.6 29 11.6 S 17 22 9 12 1012.6 1011.5 0.0
23/02:00pm 29.9 27.6 10.5 30 11.2 S 13 20 7 11 1012.9 1011.8 0.0
23/01:30pm 30.2 27.2 10.7 30 11.3 S 17 30 9 16 1012.7 1011.6 0.0
23/01:00pm 29.9 27.0 10.9 31 11.0 S 17 26 9 14 1012.9 1011.8 0.0
23/12:30pm 29.1 26.1 10.7 32 10.6 S 17 22 9 12 1013.3 1012.2 0.0
23/12:00pm 28.4 24.7 11.5 35 9.8 S 22 30 12 16 1013.8 1012.7 0.0
23/11:30am 27.4 23.3 11.4 37 9.3 S 24 32 13 17 1014.1 1013.0 0.0
23/11:00am 26.0 22.5 12.1 42 8.1 S 22 28 12 15 1013.8 1012.7 0.0
23/10:30am 26.0 22.6 12.5 43 7.9 S 22 30 12 16 1013.9 1012.8 0.0
23/10:00am 24.5 21.1 12.5 47 7.0 S 22 32 12 17 1014.0 1012.9 0.0
23/09:30am 23.6 19.0 13.5 53 5.9 S 30 39 16 21 1013.3 1012.2 2.0
23/09:00am 22.1 17.6 13.7 59 4.9 S 30 39 16 21 1012.9 1011.8 2.0
23/08:30am 20.3 15.3 14.0 67 3.7 S 33 43 18 23 1012.1 1010.9 2.0
23/08:00am 21.0 16.4 14.6 67 3.8 S 32 41 17 22 1011.9 1010.7 2.0
23/07:30am 19.7 15.5 14.7 73 3.0 S 30 37 16 20 1011.4 1010.3 2.0
23/07:00am 19.2 15.4 14.7 75 2.7 S 28 35 15 19 1011.1 1010.0 2.0
23/06:30am 19.4 16.3 14.6 74 2.8 SSW 24 28 13 15 1010.4 1009.3 2.0
23/06:00am 20.4 16.1 14.5 69 3.5 S 30 35 16 19 1010.2 1009.1 2.0
23/05:30am 21.0 16.2 13.9 64 4.2 SSW 32 44 17 24 1009.9 1008.8 2.0
23/05:00am 21.2 16.4 13.9 63 4.3 SSW 32 43 17 23 1009.7 1008.6 2.0
23/04:30am 21.4 16.8 14.6 65 4.0 SSW 32 44 17 24 1009.1 1007.9 2.0
23/04:00am 21.8 17.0 14.7 64 4.2 SSW 33 43 18 23 1008.8 1007.6 2.0
23/03:30am 22.4 18.4 15.3 64 4.3 SSW 30 43 16 23 1008.6 1007.4 2.0
23/03:00am 23.4 19.1 15.5 61 4.8 SW 32 41 17 22 1008.5 1007.3 2.0
23/02:30am 24.6 21.0 15.2 55 5.7 SW 28 39 15 21 1008.4 1007.2 2.0
23/02:00am 25.8 22.5 14.9 51 6.6 SW 26 33 14 18 1008.6 1007.4 2.0
23/01:30am 27.5 23.8 12.7 40 8.7 SW 24 30 13 16 1008.8 1007.6 2.0
23/01:00am 28.3 24.2 11.4 35 9.8 WSW 24 30 13 16 1009.0 1007.8 2.0
23/12:30am 28.5 25.5 10.7 33 10.2 W 17 22 9 12 1008.9 1007.7 2.0
23/12:00am 30.1 27.7 10.1 29 11.5 W 13 15 7 8 1008.5 1007.3 2.0
 
Date/Time
EDT
Temp
°C
App
Temp
°C
Dew
Point
Rel
Hum
%
Delta-T
°C
Wind Press
QNH
hPa
Press
MSL
hPa
Rain
since 9 am
mm
Dir
 
Spd
km/h
Gust
km/h
Spd
kts
Gust
kts
22/11:30pm 30.9 27.4 8.6 25 12.5 W 17 24 9 13 1008.3 1007.1 2.0
22/11:00pm 33.8 30.2 8.4 21 14.5 NNW 17 30 9 16 1007.5 1006.4 2.0
22/10:30pm 32.5 30.7 9.3 24 13.3 NNW 9 20 5 11 1006.8 1005.7 2.0
22/10:00pm 31.6 30.1 9.2 25 12.8 WNW 7 9 4 5 1006.5 1005.4 2.0
22/09:30pm 33.8 31.7 8.4 21 14.5 NW 9 11 5 6 1006.2 1005.1 2.0
22/09:00pm 34.8 32.6 7.8 19 15.3 NW 9 11 5 6 1006.0 1004.9 2.0
22/08:30pm 35.5 32.5 7.5 18 15.8 WNW 13 17 7 9 1005.6 1004.4 2.0
22/08:00pm 38.0 33.3 5.9 14 17.9 NW 20 28 11 15 1005.3 1004.1 2.0
22/07:30pm 39.5 33.6 6.0 13 18.8 NW 26 35 14 19 1005.1 1003.9 2.0
22/07:05pm 40.2 33.8 5.4 12 19.5 NW 28 52 15 28 1004.8 1003.6 2.0
22/07:00pm 40.0 35.0 6.4 13 19.1 NW 22 35 12 19 1004.8 1003.6 2.0
22/06:30pm 39.8 36.6 8.3 15 18.4 NNW 15 22 8 12 1004.8 1003.6 2.0
22/06:00pm 39.1 34.7 6.7 14 18.4 N 19 28 10 15 1005.2 1004.0 2.0
22/05:30pm 39.8 34.9 8.3 15 18.3 N 24 35 13 19 1005.7 1004.5 2.0
22/05:00pm 38.6 33.5 9.2 17 17.3 N 26 43 14 23 1006.2 1005.1 2.0
22/04:30pm 37.1 31.6 10.4 20 15.8 NNE 30 46 16 25 1006.6 1005.5 2.0
22/04:27pm 37.2 32.1 10.5 20 15.9 NNE 28 46 15 25 1006.5 1005.4 2.0
22/04:00pm 36.9 30.5 9.5 19 16.1 N 33 46 18 25 1006.9 1005.8 2.0
22/03:30pm 36.5 30.4 10.6 21 15.4 N 33 46 18 25 1007.6 1006.5 2.0
22/03:00pm 35.3 29.6 11.0 23 14.5 NNE 32 41 17 22 1008.4 1007.2 2.0
22/02:30pm 34.2 29.1 12.0 26 13.3 NNE 30 41 16 22 1009.1 1007.9 2.0
22/02:00pm 34.3 28.5 10.8 24 13.9 NNE 32 46 17 25 1009.6 1008.5 2.0
22/01:30pm 32.9 26.9 10.9 26 12.9 NE 33 41 18 22 1010.1 1009.0 1.8
22/01:00pm 30.6 25.3 12.5 33 10.8 NNE 32 39 17 21 1010.7 1009.6 1.8
22/12:30pm 28.7 26.0 16.6 48 7.6 NNE 26 32 14 17 1011.3 1010.2 1.8
22/12:00pm 25.0 24.1 18.2 66 4.3 NNE 20 30 11 16 1011.9 1010.7 1.8
22/11:30am 22.1 20.6 18.5 80 2.3 NNE 24 30 13 16 1012.2 1011.0 1.8
22/11:00am 20.7 19.9 18.5 87 1.4 NE 20 24 11 13 1013.5 1012.4 1.8
22/10:30am 20.2 19.2 16.6 80 2.2 N 17 26 9 14 1015.1 1014.0 1.6
22/10:00am 20.1 17.1 16.7 81 2.1 NNW 28 39 15 21 1014.7 1013.6 1.4
22/09:57am 20.4 17.4 16.8 80 2.2 NW 28 44 15 24 1014.9 1013.8 1.2
22/09:38am 21.1 16.6 16.5 75 2.8 NW 35 54 19 29 1014.4 1013.3 0.6
22/09:37am 20.9 16.4 16.3 75 2.8 NW 35 54 19 29 1014.3 1013.2 0.6
22/09:30am 21.1 17.0 13.8 63 4.3 W 28 43 15 23 1014.4 1013.3 1.6
22/09:27am 21.4 18.5 12.8 58 5.0 WNW 20 39 11 21 1013.9 1012.8 1.4
22/09:00am 21.5 18.0 13.4 60 4.7 NE 24 28 13 15 1011.5 1010.4 0.4
22/08:30am 25.9 21.3 6.5 29 10.2 NNE 20 24 11 13 1011.1 1010.0 0.0
22/08:00am 25.4 20.1 6.6 30 9.9 NE 24 32 13 17 1010.5 1009.4 0.0
22/07:30am 24.7 19.3 6.4 31 9.6 NE 24 28 13 15 1010.2 1009.1 0.0
22/07:00am 23.4 18.0 6.2 33 8.9 NE 24 28 13 15 1010.4 1009.3 0.0
22/06:30am 22.4 17.1 6.6 36 8.2 NE 24 28 13 15 1009.9 1008.8 0.0
22/06:00am 22.4 17.1 6.6 36 8.2 NE 24 26 13 14 1009.9 1008.8 0.0
22/05:30am 22.2 16.9 6.8 37 8.0 NE 24 26 13 14 1010.0 1008.9 0.0
22/05:00am 21.9 17.3 6.6 37 7.9 NE 20 22 11 12 1009.9 1008.8 0.0
22/04:30am 22.2 17.7 6.8 37 8.0 NE 20 24 11 13 1009.9 1008.8 0.0
22/04:00am 22.3 17.7 6.5 36 8.2 NE 20 24 11 13 1010.0 1008.9 0.0
22/03:30am 22.8 17.8 6.6 35 8.4 NE 22 26 12 14 1010.1 1009.0 0.0
22/03:00am 22.8 18.5 7.0 36 8.3 NE 19 22 10 12 1010.4 1009.3 0.0
22/02:30am 22.6 18.7 7.2 37 8.1 ENE 17 20 9 11 1010.6 1009.5 0.0
22/02:00am 22.6 18.6 6.8 36 8.2 ENE 17 20 9 11 1010.8 1009.7 0.0
22/01:30am 22.3 18.3 6.5 36 8.2 ENE 17 20 9 11 1011.0 1009.9 0.0
22/01:00am 22.9 18.8 6.2 34 8.6 ENE 17 19 9 10 1011.4 1010.3 0.0
22/12:30am 23.7 19.9 6.0 32 9.2 ENE 15 17 8 9 1011.5 1010.4 0.0
22/12:00am 24.4 20.3 6.2 31 9.5 E 17 20 9 11 1011.6 1010.5 0.0
 
Date/Time
EDT
Temp
°C
App
Temp
°C
Dew
Point
Rel
Hum
%
Delta-T
°C
Wind Press
QNH
hPa
Press
MSL
hPa
Rain
since 9 am
mm
Dir
 
Spd
km/h
Gust
km/h
Spd
kts
Gust
kts
21/11:30pm 25.6 21.0 6.3 29 10.1 E 20 26 11 14 1011.6 1010.5 0.0
21/11:00pm 25.3 21.5 6.0 29 10.1 ESE 15 19 8 10 1011.9 1010.7 0.0
21/10:30pm 26.0 25.0 5.6 27 10.6 CALM 0 4 0 2 1012.2 1011.0 0.0
21/10:00pm 25.4 23.1 5.6 28 10.3 SE 7 11 4 6 1012.1 1010.9 0.0
21/09:30pm 26.5 23.8 5.5 26 10.9 ESE 9 11 5 6 1011.9 1010.7 0.0
21/09:00pm 27.1 23.6 5.4 25 11.3 SE 13 15 7 8 1011.6 1010.5 0.0
21/08:30pm 28.7 26.4 5.5 23 12.2 SE 7 7 4 4 1011.3 1010.2 0.0
21/08:00pm 30.3 28.0 5.6 21 13.2 S 7 13 4 7 1010.9 1009.8 0.0
21/07:30pm 30.9 28.3 6.0 21 13.4 SE 9 13 5 7 1010.7 1009.6 0.0
21/07:00pm 31.3 28.4 6.4 21 13.5 SW 11 24 6 13 1010.4 1009.3 0.0
21/06:30pm 32.0 29.0 6.2 20 14.0 WNW 11 22 6 12 1010.4 1009.3 0.0
21/06:00pm 32.0 27.9 6.2 20 14.0 W 17 28 9 15 1010.5 1009.4 0.0
21/05:30pm 32.5 29.4 7.4 21 13.9 W 13 20 7 11 1010.6 1009.5 0.0
21/05:00pm 30.9 26.5 6.7 22 13.2 WSW 19 30 10 16 1010.9 1009.8 0.0

Other Formats:

Comma delimited format used in spreadsheet applications
http://www.bom.gov.au/fwo/IDN60801/IDN60801.94691.axf

JavaScript Object Notation format (JSON) in row-major order
http://www.bom.gov.au/fwo/IDN60801/IDN60801.94691.json